Time;durP1;ratioP1;P1;durP2;ratioP2;P2;SDS_P1;SDS_P2;PMS_P1;PMS_P2;Temp;Humidity;BMP_temperature;BMP_pressure;BME280_temperature;BME280_humidity;BME280_pressure;Samples;Min_cycle;Max_cycle;Signal;HPM_P1;HPM_P2
2022/12/06 00:00:20;;;;;;;;;;;;;;;27.22;43.20;97590.88;620490;228;68722;-67
2022/12/06 00:02:47;;;;;;;;;;;;;;;27.20;42.96;97596.59;620485;228;65106;-67
2022/12/06 00:05:15;;;;;;;;;;;;;;;27.21;42.87;97590.09;620457;228;68809;-67
2022/12/06 00:07:42;;;;;;;;;;;;;;;27.20;42.86;97588.50;620553;228;68464;-67
2022/12/06 00:10:10;;;;;;;;;;;;;;;27.18;43.60;97582.59;620497;228;65019;-67
2022/12/06 00:12:37;;;;;;;;;;;;;;;27.17;42.57;97589.09;620482;228;68851;-67
2022/12/06 00:15:05;;;;;;;;;;;;;;;27.17;43.92;97586.40;620474;228;69016;-67
2022/12/06 00:17:33;;;;;;;;;;;;;;;27.16;42.96;97582.08;620512;228;65052;-67
2022/12/06 00:20:00;;;;;;;;;;;;;;;27.15;42.65;97585.86;620516;228;66446;-68
2022/12/06 00:22:28;;;;;;;;;;;;;;;27.15;43.08;97582.37;620489;228;66744;-68
2022/12/06 00:24:55;;;;;;;;;;;;;;;27.13;42.47;97585.35;620481;228;62928;-68
2022/12/06 00:27:22;;;;;;;;;;;;;;;27.13;43.35;97588.05;620482;228;66558;-68
2022/12/06 00:29:50;;;;;;;;;;;;;;;27.13;44.04;97577.25;620504;228;68323;-68
2022/12/06 00:32:17;;;;;;;;;;;;;;;27.11;44.55;97571.34;620543;228;65046;-68
2022/12/06 00:34:46;;;;;;;;;;;;;;;27.11;42.92;97573.25;620478;228;68602;-68
2022/12/06 00:37:13;;;;;;;;;;;;;;;27.09;42.48;97578.97;620489;228;68891;-68
2022/12/06 00:39:41;;;;;;;;;;;;;;;27.09;42.52;97575.44;620490;228;65056;-68
2022/12/06 00:42:09;;;;;;;;;;;;;;;27.08;42.00;97571.16;620482;228;68976;-68
2022/12/06 00:44:36;;;;;;;;;;;;;;;27.08;44.12;97579.25;620494;228;68649;-68
2022/12/06 00:47:04;;;;;;;;;;;;;;;27.06;42.79;97576.83;620522;228;65055;-68
2022/12/06 00:49:31;;;;;;;;;;;;;;;27.04;41.96;97570.95;620520;228;68703;-68
2022/12/06 00:51:59;;;;;;;;;;;;;;;27.05;44.17;97580.64;620514;228;68863;-68
2022/12/06 00:54:26;;;;;;;;;;;;;;;27.04;43.32;97575.53;620478;228;64947;-68
2022/12/06 00:56:54;;;;;;;;;;;;;;;27.02;42.82;97570.45;620561;228;68815;-68
2022/12/06 00:59:21;;;;;;;;;;;;;;;27.01;43.51;97560.77;620533;228;68672;-68
2022/12/06 01:01:49;;;;;;;;;;;;;;;27.00;45.24;97561.84;620527;228;65006;-68
2022/12/06 01:04:16;;;;;;;;;;;;;;;26.99;43.55;97557.55;620516;228;68827;-68
2022/12/06 01:06:44;;;;;;;;;;;;;;;26.98;42.47;97555.94;620488;228;68738;-68
2022/12/06 01:09:11;;;;;;;;;;;;;;;26.97;43.94;97549.75;620487;228;62669;-68
2022/12/06 01:11:39;;;;;;;;;;;;;;;26.96;45.32;97547.36;620546;228;66640;-68
2022/12/06 01:14:07;;;;;;;;;;;;;;;26.95;43.31;97543.84;620437;228;66708;-68
2022/12/06 01:16:34;;;;;;;;;;;;;;;26.93;43.43;97546.06;620494;228;65135;-68
2022/12/06 01:19:04;;;;;;;;;;;;;;;26.94;44.80;97546.86;620502;228;68832;-68
2022/12/06 01:21:31;;;;;;;;;;;;;;;26.92;45.58;97544.44;620482;228;66617;-67
2022/12/06 01:23:59;;;;;;;;;;;;;;;26.93;45.26;97545.27;620487;228;62927;-67
2022/12/06 01:26:28;;;;;;;;;;;;;;;26.91;43.16;97539.36;620449;228;66679;-68
2022/12/06 01:28:57;;;;;;;;;;;;;;;26.89;45.22;97545.04;620186;228;66902;-68
2022/12/06 01:31:24;;;;;;;;;;;;;;;26.89;46.54;97533.45;620502;228;65001;-66
2022/12/06 01:33:52;;;;;;;;;;;;;;;26.89;45.14;97544.24;620506;228;68913;-67
2022/12/06 01:36:21;;;;;;;;;;;;;;;26.87;43.75;97543.73;620504;228;68830;-66
2022/12/06 01:38:52;;;;;;;;;;;;;;;26.86;45.13;97539.45;620468;228;63024;-67
2022/12/06 01:41:21;;;;;;;;;;;;;;;26.86;46.42;97544.84;620512;228;68816;-67
2022/12/06 01:43:48;;;;;;;;;;;;;;;26.83;44.28;97540.84;620464;228;68952;-68
2022/12/06 01:46:24;;;;;;;;;;;;;;;26.83;43.86;97540.05;620512;228;65131;-68
2022/12/06 01:48:53;;;;;;;;;;;;;;;26.82;44.21;97549.21;620503;228;66392;-68
2022/12/06 01:51:20;;;;;;;;;;;;;;;26.82;44.36;97546.52;620497;228;69013;-68
2022/12/06 01:53:49;;;;;;;;;;;;;;;26.79;46.19;97537.95;620448;228;65184;-68
2022/12/06 01:56:17;;;;;;;;;;;;;;;26.79;45.48;97537.13;620509;228;69045;-68
2022/12/06 01:58:46;;;;;;;;;;;;;;;26.76;45.48;97525.06;620461;228;68772;-68
2022/12/06 02:01:14;;;;;;;;;;;;;;;26.77;45.60;97529.34;620512;228;63014;-69
2022/12/06 02:03:42;;;;;;;;;;;;;;;26.76;46.22;97537.72;620570;228;66658;-68
2022/12/06 02:06:10;;;;;;;;;;;;;;;26.74;45.64;97540.72;620526;228;68683;-68
2022/12/06 02:08:38;;;;;;;;;;;;;;;26.73;46.02;97528.32;620522;228;65318;-68
2022/12/06 02:11:05;;;;;;;;;;;;;;;26.72;45.40;97534.82;620548;228;68397;-68
2022/12/06 02:13:34;;;;;;;;;;;;;;;26.71;47.64;97535.92;620521;228;68472;-68
2022/12/06 02:16:19;;;;;;;;;;;;;;;26.70;46.57;97530.81;620485;228;65031;-68
2022/12/06 02:18:48;;;;;;;;;;;;;;;26.69;45.66;97531.92;620511;228;68510;-67
2022/12/06 02:21:27;;;;;;;;;;;;;;;26.70;45.04;97536.20;620493;228;68473;-67
2022/12/06 02:23:58;;;;;;;;;;;;;;;26.69;46.61;97529.23;619516;228;63091;-68
2022/12/06 02:26:30;;;;;;;;;;;;;;;26.67;45.60;97520.62;620096;228;68651;-68
2022/12/06 02:29:00;;;;;;;;;;;;;;;26.65;44.63;97518.22;620470;228;68267;-68
2022/12/06 02:31:29;;;;;;;;;;;;;;;26.64;47.49;97522.02;620484;228;65091;-68
2022/12/06 02:33:58;;;;;;;;;;;;;;;26.63;47.05;97512.34;620521;228;68468;-68
2022/12/06 02:36:33;;;;;;;;;;;;;;;26.62;46.94;97510.72;620500;228;69067;-68
2022/12/06 02:39:02;;;;;;;;;;;;;;;26.61;46.68;97517.22;620489;228;62858;-68
2022/12/06 02:41:41;;;;;;;;;;;;;;;26.60;46.60;97518.33;620091;228;66446;-68
2022/12/06 02:44:10;;;;;;;;;;;;;;;26.59;47.58;97513.22;620469;228;69065;-68
2022/12/06 02:46:40;;;;;;;;;;;;;;;26.58;45.70;97512.42;620435;228;65058;-68
2022/12/06 02:49:09;;;;;;;;;;;;;;;26.56;44.06;97510.02;620572;228;68783;-68
2022/12/06 02:51:37;;;;;;;;;;;;;;;26.56;47.07;97498.44;620507;228;68665;-68
2022/12/06 02:54:06;;;;;;;;;;;;;;;26.55;46.90;97510.33;620454;228;62878;-68
2022/12/06 02:56:34;;;;;;;;;;;;;;;26.54;46.55;97511.40;620532;228;68690;-69
2022/12/06 02:59:04;;;;;;;;;;;;;;;26.52;47.42;97516.31;620521;228;66583;-68
2022/12/06 03:01:33;;;;;;;;;;;;;;;26.53;47.01;97515.20;620518;228;63045;-68
2022/12/06 03:04:11;;;;;;;;;;;;;;;26.52;46.41;97519.00;620440;228;68455;-68
2022/12/06 03:06:43;;;;;;;;;;;;;;;26.50;47.12;97516.56;620501;228;68677;-68
2022/12/06 03:09:29;;;;;;;;;;;;;;;26.50;47.50;97521.16;620490;228;65115;-68
2022/12/06 03:12:01;;;;;;;;;;;;;;;26.49;46.84;97522.23;620523;228;69010;-68
2022/12/06 03:14:30;;;;;;;;;;;;;;;26.47;47.84;97521.75;620440;228;68648;-68
2022/12/06 03:17:05;;;;;;;;;;;;;;;26.47;47.08;97524.45;620409;228;65026;-68
2022/12/06 03:19:33;;;;;;;;;;;;;;;26.46;45.78;97522.83;620593;228;66304;-68
2022/12/06 03:22:03;;;;;;;;;;;;;;;26.45;46.66;97529.31;620564;228;66672;-68
2022/12/06 03:24:32;;;;;;;;;;;;;;;26.43;46.01;97526.91;620219;228;64928;-68
2022/12/06 03:27:01;;;;;;;;;;;;;;;26.43;47.88;97518.82;614802;228;68699;-69
2022/12/06 03:29:30;;;;;;;;;;;;;;;26.41;45.81;97523.73;613730;231;68523;-68
2022/12/06 03:31:59;;;;;;;;;;;;;;;26.42;46.76;97524.52;613741;231;63122;-68
2022/12/06 03:34:37;;;;;;;;;;;;;;;26.40;46.26;97515.92;613734;230;66289;-67
2022/12/06 03:37:05;;;;;;;;;;;;;;;26.38;47.84;97507.33;613744;231;68504;-67
2022/12/06 03:39:50;;;;;;;;;;;;;;;26.37;45.86;97506.53;613758;229;62915;-67
2022/12/06 03:42:18;;;;;;;;;;;;;;;26.37;47.34;97511.13;613040;231;68324;-67
2022/12/06 03:44:46;;;;;;;;;;;;;;;26.34;45.08;97507.92;613748;231;66512;-67
2022/12/06 03:47:31;;;;;;;;;;;;;;;26.35;46.84;97508.71;613768;231;65185;-68
2022/12/06 03:50:00;;;;;;;;;;;;;;;26.33;46.77;97503.63;613777;231;68551;-67
2022/12/06 03:52:29;;;;;;;;;;;;;;;26.33;47.01;97509.02;613390;231;68084;-67
2022/12/06 03:54:57;;;;;;;;;;;;;;;26.31;48.25;97503.13;613742;231;64956;-67
2022/12/06 03:57:24;;;;;;;;;;;;;;;26.30;47.25;97503.40;613781;231;68676;-67
2022/12/06 03:59:52;;;;;;;;;;;;;;;26.30;48.74;97511.48;613713;231;68622;-68
2022/12/06 04:02:19;;;;;;;;;;;;;;;26.29;47.88;97504.50;613794;231;65044;-68
2022/12/06 04:04:48;;;;;;;;;;;;;;;26.27;47.72;97496.73;613754;231;68533;-68
2022/12/06 04:07:19;;;;;;;;;;;;;;;26.26;46.21;97505.09;613749;231;66468;-68
2022/12/06 04:10:01;;;;;;;;;;;;;;;26.26;47.15;97505.09;613673;231;62991;-68
2022/12/06 04:15:10;;;;;;;;;;;;;;;26.23;46.71;97493.01;613737;231;68473;-68
2022/12/06 04:20:23;;;;;;;;;;;;;;;26.20;47.27;97498.98;613798;231;66413;-69
2022/12/06 04:23:03;;;;;;;;;;;;;;;26.19;46.98;97499.27;613747;231;68491;-68
2022/12/06 04:25:32;;;;;;;;;;;;;;;26.17;47.13;97502.27;615033;228;65269;-69
2022/12/06 04:39:02;;;;;;;;;;;;;;;26.12;45.70;97510.42;620513;228;68600;-67
2022/12/06 04:44:15;;;;;;;;;;;;;;;26.10;47.08;97507.22;620533;228;68263;-67
2022/12/06 04:46:43;;;;;;;;;;;;;;;26.09;47.45;97501.03;620473;228;68487;-67
2022/12/06 04:49:10;;;;;;;;;;;;;;;26.08;47.00;97502.14;620521;228;65422;-67
2022/12/06 04:51:38;;;;;;;;;;;;;;;26.07;47.75;97503.22;620470;228;68439;-67
2022/12/06 04:54:06;;;;;;;;;;;;;;;26.06;47.54;97493.55;620525;228;68421;-67
2022/12/06 04:56:34;;;;;;;;;;;;;;;26.05;48.14;97493.83;620551;228;65059;-67
2022/12/06 04:59:01;;;;;;;;;;;;;;;26.05;48.14;97496.52;620491;228;68548;-67
2022/12/06 05:01:29;;;;;;;;;;;;;;;26.03;48.25;97496.03;620499;228;68513;-67
2022/12/06 05:03:56;;;;;;;;;;;;;;;26.03;46.61;97490.64;620493;228;64975;-67
2022/12/06 05:06:24;;;;;;;;;;;;;;;26.03;48.31;97496.83;620528;228;68494;-67
2022/12/06 05:08:51;;;;;;;;;;;;;;;26.02;47.31;97505.19;615206;228;68268;-67
2022/12/06 05:11:19;;;;;;;;;;;;;;;26.01;47.20;97498.20;613386;231;64915;-67
2022/12/06 05:13:47;;;;;;;;;;;;;;;26.00;47.09;97496.59;613390;231;68679;-67
2022/12/06 05:16:15;;;;;;;;;;;;;;;25.98;46.33;97494.20;613357;231;68755;-67
2022/12/06 05:18:44;;;;;;;;;;;;;;;25.98;44.86;97501.48;613397;231;64923;-67
2022/12/06 05:21:16;;;;;;;;;;;;;;;25.97;45.24;97499.87;613437;231;66483;-67
2022/12/06 05:23:44;;;;;;;;;;;;;;;25.96;48.69;97487.51;613390;231;68439;-67
2022/12/06 05:26:12;;;;;;;;;;;;;;;25.95;46.90;97489.41;610562;231;62958;-68
2022/12/06 05:28:40;;;;;;;;;;;;;;;25.94;49.21;97490.48;608058;233;68377;-67
2022/12/06 05:31:08;;;;;;;;;;;;;;;25.93;48.68;97490.79;608065;233;68462;-67
2022/12/06 05:33:35;;;;;;;;;;;;;;;25.91;48.46;97481.09;608130;233;65044;-67
2022/12/06 05:36:07;;;;;;;;;;;;;;;25.91;48.48;97486.47;608106;233;66237;-67
2022/12/06 05:38:34;;;;;;;;;;;;;;;25.89;46.60;97483.30;608033;233;66272;-67
2022/12/06 05:41:03;;;;;;;;;;;;;;;25.90;47.48;97476.02;608021;233;65082;-67
2022/12/06 05:43:30;;;;;;;;;;;;;;;25.88;48.97;97476.29;608037;233;68908;-67
2022/12/06 05:45:58;;;;;;;;;;;;;;;25.88;48.37;97487.06;608044;233;68568;-67
2022/12/06 05:48:25;;;;;;;;;;;;;;;25.88;48.62;97481.67;608052;233;65061;-67
2022/12/06 05:50:53;;;;;;;;;;;;;;;25.88;47.54;97472.80;608058;233;68512;-67
2022/12/06 05:53:20;;;;;;;;;;;;;;;25.86;45.82;97475.80;608000;233;68505;-67
2022/12/06 05:55:48;;;;;;;;;;;;;;;25.88;49.45;97472.80;608101;233;65097;-67
2022/12/06 05:58:19;;;;;;;;;;;;;;;25.87;49.97;97477.39;600651;233;68532;-67
2022/12/06 06:00:47;;;;;;;;;;;;;;;25.87;47.19;97472.01;608055;233;68140;-67
2022/12/06 06:03:17;;;;;;;;;;;;;;;25.87;47.94;97465.83;608022;232;62973;-67
2022/12/06 06:05:45;;;;;;;;;;;;;;;25.88;48.46;97472.80;608009;233;66349;-67
2022/12/06 06:08:13;;;;;;;;;;;;;;;25.88;48.12;97467.42;608035;233;68471;-67
2022/12/06 06:10:40;;;;;;;;;;;;;;;25.87;46.39;97469.31;608088;233;62757;-67
2022/12/06 06:13:10;;;;;;;;;;;;;;;25.88;46.44;97462.83;608071;233;48458;-67
2022/12/06 06:15:37;;;;;;;;;;;;;;;25.89;47.31;97467.14;608032;233;68349;-67
2022/12/06 06:18:05;;;;;;;;;;;;;;;25.90;47.22;97468.73;608037;233;65049;-67
2022/12/06 06:20:34;;;;;;;;;;;;;;;25.91;45.45;97464.14;608078;233;68688;-67
2022/12/06 06:23:01;;;;;;;;;;;;;;;25.92;46.90;97454.98;608121;233;67984;-67
2022/12/06 06:25:29;;;;;;;;;;;;;;;25.93;47.95;97453.09;608447;232;64876;-67
2022/12/06 06:27:56;;;;;;;;;;;;;;;25.95;48.23;97458.99;610076;232;68298;-67
2022/12/06 06:30:24;;;;;;;;;;;;;;;25.96;46.33;97465.97;610028;232;68446;-67
2022/12/06 06:32:51;;;;;;;;;;;;;;;25.96;46.85;97463.27;609663;232;64794;-67
2022/12/06 06:35:19;;;;;;;;;;;;;;;25.98;47.27;97469.97;610029;232;66163;-68
2022/12/06 06:37:47;;;;;;;;;;;;;;;25.99;48.26;97462.69;610068;232;66073;-68
2022/12/06 06:40:14;;;;;;;;;;;;;;;26.01;47.07;97465.89;609911;232;63091;-67
2022/12/06 06:42:42;;;;;;;;;;;;;;;26.01;46.13;97461.30;609928;232;68318;-68
2022/12/06 06:45:09;;;;;;;;;;;;;;;26.02;47.45;97464.79;609024;232;68582;-68
2022/12/06 06:47:37;;;;;;;;;;;;;;;26.03;46.45;97469.09;609622;232;65068;-67
2022/12/06 06:50:05;;;;;;;;;;;;;;;26.04;48.05;97449.94;610114;232;68432;-68
2022/12/06 06:52:32;;;;;;;;;;;;;;;26.05;46.87;97456.91;609812;232;68390;-68
2022/12/06 06:55:00;;;;;;;;;;;;;;;26.07;45.11;97454.73;609882;232;65102;-73
2022/12/06 06:57:27;;;;;;;;;;;;;;;26.10;45.58;97459.53;609989;232;68850;-70
2022/12/06 06:59:55;;;;;;;;;;;;;;;26.11;45.33;97457.66;609390;232;68506;-74
2022/12/06 07:02:22;;;;;;;;;;;;;;;26.12;45.82;97456.55;609985;232;65042;-73
2022/12/06 07:04:50;;;;;;;;;;;;;;;26.14;46.29;97451.68;609995;232;68592;-71
2022/12/06 07:07:18;;;;;;;;;;;;;;;26.18;42.87;97451.88;609858;232;68509;-72
2022/12/06 07:09:45;;;;;;;;;;;;;;;26.19;45.26;97456.99;609977;232;65066;-71
2022/12/06 07:12:14;;;;;;;;;;;;;;;26.18;43.27;97449.98;610000;232;68278;-73
2022/12/06 07:14:41;;;;;;;;;;;;;;;26.21;44.64;97459.38;610016;232;68526;-71
2022/12/06 07:17:10;;;;;;;;;;;;;;;26.21;44.93;97451.30;610005;232;63097;-72
2022/12/06 07:19:38;;;;;;;;;;;;;;;26.21;43.82;97435.92;611025;230;68374;-72
2022/12/06 07:22:05;;;;;;;;;;;;;;;26.23;45.68;97441.83;615018;230;66340;-73
2022/12/06 07:24:33;;;;;;;;;;;;;;;26.24;43.85;97431.84;615077;230;64906;-72
2022/12/06 07:27:00;;;;;;;;;;;;;;;26.26;42.89;97435.84;619604;228;68606;-71
2022/12/06 07:29:28;;;;;;;;;;;;;;;26.27;44.70;97436.64;620419;228;68440;-72
2022/12/06 07:31:55;;;;;;;;;;;;;;;26.28;45.47;97433.66;620467;228;65250;-70
2022/12/06 07:34:23;;;;;;;;;;;;;;;26.31;44.77;97429.58;620435;228;68714;-71
2022/12/06 07:36:50;;;;;;;;;;;;;;;26.32;44.59;97429.27;620415;228;68356;-73
2022/12/06 07:39:18;;;;;;;;;;;;;;;26.32;46.02;97428.47;620476;228;64896;-70
2022/12/06 07:47:21;;;;;;;;;;;;;;;26.38;45.56;97434.57;616981;228;63117;-70
2022/12/06 07:49:50;;;;;;;;;;;;;;;26.38;46.27;97440.75;619248;228;66620;-70
2022/12/06 07:52:17;;;;;;;;;;;;;;;26.40;45.31;97435.08;620291;228;66729;-70
2022/12/06 07:54:45;;;;;;;;;;;;;;;26.41;44.46;97437.49;620480;228;63826;-70
2022/12/06 07:57:12;;;;;;;;;;;;;;;26.42;45.02;97428.30;620423;228;67628;-71
2022/12/06 07:59:40;;;;;;;;;;;;;;;26.44;45.36;97426.12;620399;228;68696;-70
2022/12/06 08:02:09;;;;;;;;;;;;;;;26.45;44.47;97426.91;620468;228;64993;-69
2022/12/06 08:04:36;;;;;;;;;;;;;;;26.47;42.05;97428.22;620065;228;68343;-71
2022/12/06 08:07:04;;;;;;;;;;;;;;;26.49;42.44;97423.34;620398;228;68700;-70
2022/12/06 08:09:31;;;;;;;;;;;;;;;26.49;43.12;97414.42;620460;228;62663;-71
2022/12/06 08:11:59;;;;;;;;;;;;;;;26.49;43.21;97412.55;620408;228;66868;-71
2022/12/06 08:14:27;;;;;;;;;;;;;;;26.50;43.25;97413.34;620452;228;68713;-70
2022/12/06 08:16:54;;;;;;;;;;;;;;;26.51;44.09;97414.97;620408;228;65190;-70
2022/12/06 08:19:22;;;;;;;;;;;;;;;26.53;44.18;97415.48;620396;228;68855;-69
2022/12/06 08:21:50;;;;;;;;;;;;;;;26.53;44.10;97418.17;620500;228;68644;-71
2022/12/06 08:24:18;;;;;;;;;;;;;;;26.53;42.69;97416.27;620391;228;62992;-70
2022/12/06 08:26:45;;;;;;;;;;;;;;;26.57;45.49;97408.38;620422;228;68693;-70
2022/12/06 08:29:13;;;;;;;;;;;;;;;26.61;41.84;97411.30;620429;228;68735;-70
2022/12/06 08:31:40;;;;;;;;;;;;;;;26.62;43.30;97400.20;620401;228;64841;-71
2022/12/06 08:34:08;;;;;;;;;;;;;;;26.64;41.04;97403.41;620419;228;68848;-69
2022/12/06 08:36:37;;;;;;;;;;;;;;;26.67;44.80;97399.31;620517;228;68906;-70
2022/12/06 08:39:05;;;;;;;;;;;;;;;26.68;41.78;97393.64;620340;228;63109;-69
2022/12/06 08:44:18;;;;;;;;;;;;;;;26.73;42.45;97380.03;620442;228;68758;-71
2022/12/06 08:46:46;;;;;;;;;;;;;;;26.76;43.85;97384.85;620327;228;65107;-71
2022/12/06 08:49:14;;;;;;;;;;;;;;;26.73;44.66;97382.73;620476;228;66611;-70
2022/12/06 08:51:42;;;;;;;;;;;;;;;26.71;44.89;97368.77;620514;228;66464;-71
2022/12/06 08:54:11;;;;;;;;;;;;;;;26.71;43.01;97373.34;620355;228;63040;-72
2022/12/06 08:56:39;;;;;;;;;;;;;;;26.70;42.49;97369.06;620283;228;66580;-71
2022/12/06 08:59:06;;;;;;;;;;;;;;;26.70;42.17;97375.24;613900;228;66973;-72
2022/12/06 09:01:34;;;;;;;;;;;;;;;26.69;41.62;97365.57;613278;231;62973;-72
2022/12/06 09:04:01;;;;;;;;;;;;;;;26.69;42.56;97362.08;613364;231;66654;-71
2022/12/06 09:06:31;;;;;;;;;;;;;;;26.70;42.11;97359.06;613373;231;53755;-71
2022/12/06 09:08:58;;;;;;;;;;;;;;;26.70;41.20;97359.06;613202;231;65057;-71
2022/12/06 09:11:26;;;;;;;;;;;;;;;26.71;41.94;97352.59;613328;231;68833;-71
2022/12/06 09:13:54;;;;;;;;;;;;;;;26.72;42.24;97348.00;619725;228;69919;-72
2022/12/06 09:16:22;;;;;;;;;;;;;;;26.72;43.24;97339.91;620367;228;66511;-70
2022/12/06 09:18:53;;;;;;;;;;;;;;;26.72;40.27;97331.82;620385;228;68556;-70
2022/12/06 09:21:26;;;;;;;;;;;;;;;26.74;40.85;97332.33;620375;228;68579;-70
2022/12/06 09:23:55;;;;;;;;;;;;;;;26.75;43.50;97334.70;620379;228;65073;-72
2022/12/06 09:26:22;;;;;;;;;;;;;;;26.75;43.72;97326.62;620408;228;69043;-70
2022/12/06 09:28:51;;;;;;;;;;;;;;;26.76;43.67;97316.63;620363;228;68730;-71
2022/12/06 09:31:19;;;;;;;;;;;;;;;26.78;41.57;97317.92;619946;228;62900;-71
2022/12/06 09:33:47;;;;;;;;;;;;;;;26.81;42.53;97316.52;607814;228;71795;-71
2022/12/06 09:36:19;;;;;;;;;;;;;;;26.79;42.30;97303.36;613664;228;67966;-70
2022/12/06 09:38:48;;;;;;;;;;;;;;;26.80;42.91;97296.06;620107;228;70682;-71
2022/12/06 09:41:20;;;;;;;;;;;;;;;26.82;43.60;97295.74;620334;228;66604;-72
2022/12/06 09:43:53;;;;;;;;;;;;;;;26.81;42.72;97283.38;620258;228;68565;-71
2022/12/06 09:46:38;;;;;;;;;;;;;;;26.82;41.75;97280.39;620079;228;65038;-70
2022/12/06 09:49:07;;;;;;;;;;;;;;;26.84;42.22;97280.86;620361;228;66512;-69
2022/12/06 09:51:45;;;;;;;;;;;;;;;26.85;44.02;97277.08;620321;228;68526;-68
2022/12/06 09:54:14;;;;;;;;;;;;;;;26.87;43.72;97276.77;620247;228;62896;-69
2022/12/06 09:56:55;;;;;;;;;;;;;;;26.89;43.96;97271.87;620403;228;66416;-69
2022/12/06 09:59:24;;;;;;;;;;;;;;;26.86;38.01;97269.78;620336;228;68818;-71
2022/12/06 10:02:12;;;;;;;;;;;;;;;26.91;41.51;97266.98;620389;228;65098;-70
2022/12/06 10:04:47;;;;;;;;;;;;;;;26.92;44.09;97269.36;620375;228;68803;-71
2022/12/06 10:07:16;;;;;;;;;;;;;;;26.93;45.13;97270.97;620391;228;68506;-71
2022/12/06 10:09:45;;;;;;;;;;;;;;;26.94;43.04;97260.98;617490;228;62778;-70
2022/12/06 10:12:25;;;;;;;;;;;;;;;26.96;44.86;97261.48;609682;232;66710;-68
2022/12/06 10:15:01;;;;;;;;;;;;;;;26.97;43.58;97258.46;610754;232;69016;-69
2022/12/06 10:17:30;;;;;;;;;;;;;;;27.00;43.54;97248.96;611205;232;62962;-70
2022/12/06 10:20:04;;;;;;;;;;;;;;;27.02;41.68;97254.86;610891;232;66618;-69
2022/12/06 10:22:34;;;;;;;;;;;;;;;27.04;42.16;97252.66;611161;232;68666;-69
2022/12/06 10:25:12;;;;;;;;;;;;;;;27.05;42.94;97248.06;610517;232;62998;-70
2022/12/06 10:27:41;;;;;;;;;;;;;;;27.07;44.88;97256.66;601955;234;68860;-70
2022/12/06 10:30:10;;;;;;;;;;;;;;;27.08;43.14;97250.94;601864;234;68528;-70
2022/12/06 10:32:47;;;;;;;;;;;;;;;27.10;44.24;97251.44;602001;235;64800;-71
2022/12/06 10:35:34;;;;;;;;;;;;;;;27.12;42.59;97237.62;602079;235;68232;-70
2022/12/06 10:38:06;;;;;;;;;;;;;;;27.14;42.60;97247.02;602096;235;66225;-70
2022/12/06 10:40:52;;;;;;;;;;;;;;;27.17;42.43;97237.54;601855;234;65209;-70
2022/12/06 10:43:23;;;;;;;;;;;;;;;27.18;40.49;97233.76;602054;235;68878;-71
2022/12/06 10:49:11;;;;;;;;;;;;;;;27.20;43.68;97229.66;601992;235;65320;-71
2022/12/06 10:51:43;;;;;;;;;;;;;;;27.22;41.42;97218.53;602078;235;67006;-69
2022/12/06 10:54:19;;;;;;;;;;;;;;;27.22;42.93;97210.45;601936;234;66222;-69
2022/12/06 10:56:48;;;;;;;;;;;;;;;27.22;42.25;97208.53;600929;235;65324;-71
2022/12/06 10:59:17;;;;;;;;;;;;;;;27.22;44.81;97202.34;602016;235;66706;-71
2022/12/06 11:01:45;;;;;;;;;;;;;;;27.24;43.63;97205.55;602034;235;66772;-72
2022/12/06 11:04:20;;;;;;;;;;;;;;;27.25;43.66;97198.24;602068;235;65152;-71
2022/12/06 11:06:49;;;;;;;;;;;;;;;27.26;41.91;97189.85;601971;234;66773;-71
2022/12/06 11:09:21;;;;;;;;;;;;;;;27.26;41.73;97186.36;602003;235;66609;-73
2022/12/06 11:11:49;;;;;;;;;;;;;;;27.29;42.93;97188.44;602051;234;63074;-74
2022/12/06 11:14:24;;;;;;;;;;;;;;;27.29;41.79;97185.74;602077;235;68796;-73
2022/12/06 11:16:53;;;;;;;;;;;;;;;27.29;44.04;97186.53;602007;235;68683;-71
2022/12/06 11:19:31;;;;;;;;;;;;;;;27.31;42.39;97172.72;602054;235;65123;-66
2022/12/06 11:22:00;;;;;;;;;;;;;;;27.30;41.72;97176.53;602005;234;68970;-69
2022/12/06 11:24:32;;;;;;;;;;;;;;;27.31;43.77;97170.02;601937;234;68478;-70
2022/12/06 11:27:20;;;;;;;;;;;;;;;27.30;42.98;97169.23;601766;234;65152;-70
2022/12/06 11:29:48;;;;;;;;;;;;;;;27.30;43.36;97161.13;601887;235;66678;-71
2022/12/06 11:32:16;;;;;;;;;;;;;;;27.31;43.61;97161.92;601976;235;69130;-70
2022/12/06 11:34:46;;;;;;;;;;;;;;;27.31;43.43;97151.13;602015;235;65120;-68
2022/12/06 11:37:15;;;;;;;;;;;;;;;27.31;42.38;97151.13;601921;235;68818;-71
2022/12/06 11:39:43;;;;;;;;;;;;;;;27.32;40.50;97152.74;602008;235;66670;-69
2022/12/06 11:42:13;;;;;;;;;;;;;;;27.33;41.28;97135.44;602111;235;64920;-71
2022/12/06 11:44:42;;;;;;;;;;;;;;;27.33;41.34;97135.44;601921;235;68767;-70
2022/12/06 11:47:11;;;;;;;;;;;;;;;27.34;42.80;97134.34;602042;235;68711;-70
2022/12/06 11:49:39;;;;;;;;;;;;;;;27.34;43.07;97137.84;601956;234;65017;-70
2022/12/06 11:52:14;;;;;;;;;;;;;;;27.34;42.36;97139.75;602082;235;68569;-70
2022/12/06 11:54:52;;;;;;;;;;;;;;;27.34;42.68;97129.74;601986;234;68723;-71
2022/12/06 11:57:21;;;;;;;;;;;;;;;27.34;43.04;97126.25;602002;234;62758;-70
2022/12/06 12:00:08;;;;;;;;;;;;;;;27.35;42.60;97117.04;601973;235;68990;-71
2022/12/06 12:02:38;;;;;;;;;;;;;;;27.34;41.84;97118.95;602163;235;45045;-69
2022/12/06 12:05:10;;;;;;;;;;;;;;;27.35;42.19;97114.34;602027;235;65070;-70
2022/12/06 12:07:39;;;;;;;;;;;;;;;27.34;42.67;97112.77;602129;235;68785;-69
2022/12/06 12:10:25;;;;;;;;;;;;;;;27.33;43.82;97111.94;601934;235;66722;-69
2022/12/06 12:15:39;;;;;;;;;;;;;;;27.33;45.00;97106.55;602110;235;68895;-69
2022/12/06 12:18:08;;;;;;;;;;;;;;;27.33;42.26;97105.75;602091;235;68729;-70
2022/12/06 12:20:37;;;;;;;;;;;;;;;27.34;42.42;97107.36;598476;234;65064;-69
2022/12/06 12:23:18;;;;;;;;;;;;;;;27.35;37.44;97117.04;597941;237;68790;-70
2022/12/06 12:25:47;;;;;;;;;;;;;;;27.39;39.46;97118.00;607521;231;66734;-71
2022/12/06 12:28:25;;;;;;;;;;;;;;;27.41;42.80;97121.19;620618;228;62961;-69
2022/12/06 12:30:54;;;;;;;;;;;;;;;27.40;43.21;97122.31;621194;228;68835;-69
2022/12/06 12:33:22;;;;;;;;;;;;;;;27.37;43.86;97115.62;621152;228;69759;-69
2022/12/06 12:35:51;;;;;;;;;;;;;;;27.37;42.21;97122.94;621131;228;62918;-71
2022/12/06 12:38:20;;;;;;;;;;;;;;;27.37;37.64;97112.92;621222;228;68639;-69
2022/12/06 12:40:49;;;;;;;;;;;;;;;27.42;40.95;97114.70;620022;228;68523;-68
2022/12/06 12:43:21;;;;;;;;;;;;;;;27.43;40.37;97108.19;621152;228;65063;-67
2022/12/06 12:46:07;;;;;;;;;;;;;;;27.44;39.67;97107.07;620870;228;68797;-68
2022/12/06 12:48:35;;;;;;;;;;;;;;;27.45;40.70;97097.89;620477;228;66934;-68
2022/12/06 12:51:04;;;;;;;;;;;;;;;27.45;43.07;97101.38;621099;228;65138;-68
2022/12/06 12:53:33;;;;;;;;;;;;;;;27.45;40.40;97098.67;621256;228;68791;-68
2022/12/06 12:56:07;;;;;;;;;;;;;;;27.46;42.91;97104.86;621042;228;48292;-68
2022/12/06 12:58:35;;;;;;;;;;;;;;;27.48;41.00;97096.47;620759;228;65796;-69
2022/12/06 13:01:04;;;;;;;;;;;;;;;27.47;44.40;97092.95;621104;228;68741;-69
2022/12/06 13:03:39;;;;;;;;;;;;;;;27.47;43.13;97101.05;621120;228;66576;-67
2022/12/06 13:06:07;;;;;;;;;;;;;;;27.45;42.25;97093.28;621216;228;64907;-68
2022/12/06 13:08:36;;;;;;;;;;;;;;;27.43;37.87;97094.70;621151;228;68586;-67
2022/12/06 13:11:05;;;;;;;;;;;;;;;27.47;43.44;97101.05;621045;228;68746;-68
2022/12/06 13:13:34;;;;;;;;;;;;;;;27.45;42.03;97100.59;621112;228;65112;-68
2022/12/06 13:16:02;;;;;;;;;;;;;;;27.45;43.90;97100.59;620904;228;68957;-68
2022/12/06 13:18:41;;;;;;;;;;;;;;;27.43;43.08;97094.70;621084;228;68698;-67
2022/12/06 13:21:10;;;;;;;;;;;;;;;27.40;43.83;97096.11;621086;228;65363;-68
2022/12/06 13:23:39;;;;;;;;;;;;;;;27.39;43.09;97093.70;620827;228;68845;-68
2022/12/06 13:26:21;;;;;;;;;;;;;;;27.39;44.76;97085.61;620703;228;66571;-67
2022/12/06 13:28:51;;;;;;;;;;;;;;;27.37;42.42;97083.24;620249;228;62677;-68
2022/12/06 13:31:20;;;;;;;;;;;;;;;27.36;44.30;97084.33;620271;228;69057;-68
2022/12/06 13:33:49;;;;;;;;;;;;;;;27.37;44.47;97095.95;620323;228;68668;-64